createdAt,value
2023-03-06T00:54:53.585Z,26.35
2023-03-06T00:55:54.545Z,26.40
2023-03-06T00:56:54.538Z,26.38
2023-03-06T00:57:54.525Z,26.38
2023-03-06T00:58:54.522Z,26.42
2023-03-06T00:59:54.512Z,26.35
2023-03-06T01:00:54.519Z,26.45
2023-03-06T01:01:54.629Z,26.36
2023-03-06T01:02:54.478Z,26.39
2023-03-06T01:03:54.476Z,26.38
2023-03-06T01:04:54.466Z,26.36
2023-03-06T01:05:54.462Z,26.41
2023-03-06T01:06:54.442Z,26.38
2023-03-06T01:07:54.439Z,26.40
2023-03-06T01:08:54.423Z,26.38
2023-03-06T01:09:54.413Z,26.36
2023-03-06T01:10:54.445Z,26.35
2023-03-06T01:11:54.394Z,26.37
2023-03-06T01:12:54.817Z,26.35
2023-03-06T01:13:54.393Z,26.31
2023-03-06T01:14:54.371Z,26.35
2023-03-06T01:15:54.385Z,26.38
2023-03-06T01:16:54.361Z,26.41
2023-03-06T01:17:54.341Z,26.31
2023-03-06T01:18:54.337Z,26.35
2023-03-06T01:19:54.327Z,26.34
2023-03-06T01:20:54.312Z,26.32
2023-03-06T01:21:54.305Z,26.35
2023-03-06T01:22:54.299Z,26.28
2023-03-06T01:23:54.288Z,26.29
2023-03-06T01:24:54.277Z,26.28
2023-03-06T01:25:54.270Z,26.26
2023-03-06T01:26:54.279Z,26.28
2023-03-06T01:27:54.260Z,26.28
2023-03-06T01:28:54.240Z,26.28
2023-03-06T01:29:54.232Z,26.28
2023-03-06T01:30:54.218Z,26.29
2023-03-06T01:31:54.246Z,26.29
2023-03-06T01:32:54.203Z,26.18
2023-03-06T01:33:54.190Z,26.11
2023-03-06T01:34:54.180Z,26.11
2023-03-06T01:35:54.245Z,26.09
2023-03-06T01:36:54.176Z,26.08
2023-03-06T01:37:54.154Z,26.18
2023-03-06T01:38:54.151Z,26.16
2023-03-06T01:39:54.138Z,26.17
2023-03-06T01:40:54.130Z,26.16
2023-03-06T01:41:54.127Z,26.15
2023-03-06T01:42:54.137Z,26.12
2023-03-06T01:43:54.111Z,26.08
2023-03-06T01:44:54.091Z,26.11
2023-03-06T01:45:54.125Z,26.09
2023-03-06T01:46:54.078Z,26.07
2023-03-06T01:47:54.065Z,26.08
2023-03-06T01:48:54.053Z,26.12
2023-03-06T01:49:54.049Z,26.12
2023-03-06T01:50:54.049Z,26.12
2023-03-06T01:51:54.036Z,26.06
2023-03-06T01:52:54.021Z,26.08
2023-03-06T01:53:54.008Z,26.01
2023-03-06T01:54:54.006Z,25.95
2023-03-06T01:55:53.994Z,26.01
2023-03-06T01:56:53.988Z,25.93
2023-03-06T01:57:53.987Z,25.95
2023-03-06T01:58:54.004Z,25.82
2023-03-06T01:59:53.959Z,25.88
2023-03-06T02:00:53.997Z,25.92
2023-03-06T02:01:53.946Z,25.85
2023-03-06T02:02:53.930Z,25.72
2023-03-06T02:03:53.927Z,25.80
2023-03-06T02:04:53.915Z,25.83
2023-03-06T02:05:53.906Z,25.72
2023-03-06T02:06:53.902Z,25.75
2023-03-06T02:07:53.887Z,25.75
2023-03-06T02:08:53.890Z,25.69
2023-03-06T02:09:53.868Z,25.73
2023-03-06T02:10:53.862Z,25.66
2023-03-06T02:11:53.853Z,25.72
2023-03-06T02:12:53.842Z,25.61
2023-03-06T02:13:53.840Z,25.55
2023-03-06T02:14:54.103Z,25.48
2023-03-06T02:15:53.818Z,25.55
2023-03-06T02:16:53.829Z,25.55
2023-03-06T02:17:53.797Z,25.55
2023-03-06T02:18:53.801Z,25.60
2023-03-06T02:19:53.789Z,25.48
2023-03-06T02:20:53.777Z,25.55
2023-03-06T02:21:53.765Z,25.59
2023-03-06T02:22:53.754Z,25.56
2023-03-06T02:23:53.751Z,25.50
2023-03-06T02:24:53.737Z,25.48
2023-03-06T02:25:53.729Z,25.49
2023-03-06T02:26:53.732Z,25.41
2023-03-06T02:27:53.712Z,25.43
2023-03-06T02:28:53.700Z,25.39
2023-03-06T02:29:53.688Z,25.28
2023-03-06T02:30:53.756Z,25.36
2023-03-06T02:31:53.675Z,25.36
2023-03-06T02:32:53.662Z,25.28
2023-03-06T02:33:53.651Z,25.32
2023-03-06T02:34:54.287Z,25.33
2023-03-06T02:35:53.686Z,25.24
2023-03-06T02:36:53.630Z,25.28
2023-03-06T02:37:53.623Z,25.25
2023-03-06T02:38:53.615Z,25.33
2023-03-06T02:39:53.600Z,25.33
2023-03-06T02:40:53.596Z,25.26
2023-03-06T02:41:53.581Z,25.34
2023-03-06T02:42:53.585Z,25.29
2023-03-06T02:43:53.567Z,25.41
2023-03-06T02:44:53.575Z,25.21
2023-03-06T02:45:53.602Z,25.26
2023-03-06T02:46:53.559Z,25.21
2023-03-06T02:47:53.529Z,25.24
2023-03-06T02:48:53.519Z,25.14
2023-03-06T02:49:53.522Z,25.15
2023-03-06T02:50:53.496Z,25.16
2023-03-06T02:51:53.522Z,25.08
2023-03-06T02:52:53.481Z,25.20
2023-03-06T02:53:53.494Z,25.19
2023-03-06T02:54:53.471Z,25.21
2023-03-06T02:55:53.478Z,25.25
2023-03-06T02:56:53.437Z,25.24
2023-03-06T02:57:53.436Z,25.29
2023-03-06T02:58:53.423Z,25.31
2023-03-06T02:59:53.423Z,25.24
2023-03-06T03:00:53.408Z,25.18
2023-03-06T03:01:53.436Z,25.02
2023-03-06T03:02:53.410Z,25.01
2023-03-06T03:03:53.383Z,25.16
2023-03-06T03:04:53.405Z,25.24
2023-03-06T03:05:53.362Z,25.25
2023-03-06T03:06:53.349Z,25.16
2023-03-06T03:07:53.349Z,25.11
2023-03-06T03:08:53.333Z,25.10
2023-03-06T03:09:53.321Z,25.04
2023-03-06T03:10:53.315Z,25.07
2023-03-06T03:11:53.304Z,25.11
2023-03-06T03:12:53.300Z,25.11
2023-03-06T03:13:53.289Z,25.16
2023-03-06T03:14:53.277Z,25.14
2023-03-06T03:15:53.287Z,25.10
2023-03-06T03:16:53.259Z,25.10
2023-03-06T03:17:53.254Z,25.05
2023-03-06T03:18:53.265Z,25.20
2023-03-06T03:19:53.235Z,25.08
2023-03-06T03:20:53.236Z,25.07
2023-03-06T03:21:53.216Z,25.08
2023-03-06T03:22:53.220Z,25.11
2023-03-06T03:23:53.199Z,25.06
2023-03-06T03:24:53.272Z,25.07
2023-03-06T03:25:53.182Z,25.07
2023-03-06T03:26:53.173Z,25.03
2023-03-06T03:27:53.170Z,24.98
2023-03-06T03:28:53.155Z,25.00
2023-03-06T03:29:53.150Z,25.00
2023-03-06T03:30:53.221Z,25.09
2023-03-06T03:31:53.134Z,25.07
2023-03-06T03:32:53.122Z,25.05
2023-03-06T03:33:53.112Z,25.08
2023-03-06T03:34:53.131Z,25.11
2023-03-06T03:35:53.107Z,25.09
2023-03-06T03:36:53.087Z,24.95
2023-03-06T03:37:53.094Z,25.02
2023-03-06T03:38:53.067Z,25.05
2023-03-06T03:39:53.059Z,24.97
2023-03-06T03:40:53.048Z,25.00
2023-03-06T03:41:53.044Z,25.00
2023-03-06T03:42:53.032Z,24.93
2023-03-06T03:43:53.021Z,24.85
2023-03-06T03:44:53.012Z,24.90
2023-03-06T03:45:53.008Z,25.03
2023-03-06T03:46:52.998Z,24.98
2023-03-06T03:47:52.993Z,24.98
2023-03-06T03:48:52.981Z,24.97
2023-03-06T03:49:52.974Z,24.94
2023-03-06T03:50:53.000Z,24.95
2023-03-06T03:51:52.954Z,24.93
2023-03-06T03:52:52.949Z,24.92
2023-03-06T03:53:52.930Z,24.91
2023-03-06T03:54:52.927Z,24.94
2023-03-06T03:55:52.914Z,25.01
2023-03-06T03:56:52.907Z,25.05
2023-03-06T03:57:52.894Z,25.07
2023-03-06T03:58:52.896Z,25.04
2023-03-06T03:59:52.880Z,25.05
2023-03-06T04:00:52.872Z,25.10
2023-03-06T04:01:53.012Z,25.08
2023-03-06T04:02:52.857Z,25.11
2023-03-06T04:03:52.836Z,25.10
2023-03-06T04:04:52.864Z,25.08
2023-03-06T04:05:52.822Z,25.13
2023-03-06T04:06:52.848Z,25.07
2023-03-06T04:07:52.806Z,25.11
2023-03-06T04:08:52.793Z,25.10
2023-03-06T04:09:52.783Z,25.13
2023-03-06T04:10:52.779Z,25.08
2023-03-06T04:11:52.771Z,25.18
2023-03-06T04:12:52.785Z,25.15
2023-03-06T04:13:52.759Z,25.09
2023-03-06T04:14:52.744Z,25.20
2023-03-06T04:15:52.780Z,25.22
2023-03-06T04:16:52.723Z,25.22
2023-03-06T04:17:52.711Z,25.25
2023-03-06T04:18:52.705Z,25.28
2023-03-06T04:19:52.702Z,25.29
2023-03-06T04:20:52.700Z,25.37
2023-03-06T04:21:52.676Z,25.38
2023-03-06T04:22:52.692Z,25.46
2023-03-06T04:23:52.662Z,25.37
2023-03-06T04:24:52.650Z,25.36
2023-03-06T04:25:52.648Z,25.38
2023-03-06T04:26:52.633Z,25.35
2023-03-06T04:27:52.624Z,25.39
2023-03-06T04:28:52.620Z,25.40
2023-03-06T04:29:52.609Z,25.40
2023-03-06T04:30:52.610Z,25.43
2023-03-06T04:31:52.588Z,25.42
2023-03-06T04:32:52.578Z,25.43
2023-03-06T04:33:52.576Z,25.43
2023-03-06T04:34:52.566Z,25.44
2023-03-06T04:35:52.589Z,25.48
2023-03-06T04:36:52.544Z,25.51
2023-03-06T04:37:52.543Z,25.57
2023-03-06T04:38:52.608Z,25.57
2023-03-06T04:39:52.518Z,25.58
2023-03-06T04:40:52.508Z,25.61
2023-03-06T04:41:52.507Z,25.61
2023-03-06T04:42:52.494Z,25.63
2023-03-06T04:43:52.490Z,25.69
2023-03-06T04:44:52.474Z,25.68
2023-03-06T04:45:52.575Z,25.73
2023-03-06T04:46:52.457Z,25.70
2023-03-06T04:47:52.449Z,25.77
2023-03-06T04:48:52.443Z,25.76
2023-03-06T04:49:52.431Z,25.80
2023-03-06T04:50:52.423Z,25.83
2023-03-06T04:51:52.417Z,25.80
2023-03-06T04:52:52.396Z,25.85
2023-03-06T04:53:52.415Z,25.80
2023-03-06T04:54:52.411Z,25.83
2023-03-06T04:55:52.377Z,25.85
2023-03-06T04:56:52.367Z,25.84
2023-03-06T04:57:52.356Z,25.90
2023-03-06T04:58:52.356Z,25.87
2023-03-06T04:59:52.344Z,25.90
2023-03-06T05:00:52.406Z,25.87
2023-03-06T05:01:52.371Z,25.84
2023-03-06T05:02:52.315Z,25.89
2023-03-06T05:03:52.304Z,25.91
2023-03-06T05:04:52.300Z,25.90
2023-03-06T05:05:52.281Z,25.90
2023-03-06T05:06:52.276Z,25.81
2023-03-06T05:07:52.271Z,25.87
2023-03-06T05:08:52.253Z,25.89
2023-03-06T05:09:52.249Z,25.87
2023-03-06T05:10:52.262Z,25.83
2023-03-06T05:11:52.227Z,25.86
2023-03-06T05:12:52.220Z,25.82
2023-03-06T05:13:52.210Z,25.88
2023-03-06T05:14:52.201Z,25.90
2023-03-06T05:15:52.191Z,25.83
2023-03-06T05:16:52.190Z,25.85
2023-03-06T05:17:52.837Z,25.85
2023-03-06T05:18:52.175Z,25.87
2023-03-06T05:19:52.155Z,25.89
2023-03-06T05:20:52.147Z,25.86
2023-03-06T05:21:52.134Z,25.93
2023-03-06T05:22:52.129Z,25.97
2023-03-06T05:23:52.122Z,25.97
2023-03-06T05:24:52.109Z,25.97
2023-03-06T05:25:52.102Z,26.00
2023-03-06T05:26:52.117Z,26.00
2023-03-06T05:27:52.079Z,26.02
2023-03-06T05:28:52.083Z,26.00
2023-03-06T05:29:52.065Z,25.93
2023-03-06T05:30:52.069Z,26.03
2023-03-06T05:31:52.127Z,26.01
2023-03-06T05:32:52.064Z,26.01
2023-03-06T05:33:52.028Z,26.04
2023-03-06T05:34:52.019Z,26.02
2023-03-06T05:35:52.060Z,26.00
2023-03-06T05:36:52.049Z,26.07
2023-03-06T05:37:51.998Z,26.06
2023-03-06T05:38:51.995Z,26.08
2023-03-06T05:39:51.993Z,26.06
2023-03-06T05:40:51.985Z,26.03
2023-03-06T05:41:51.969Z,26.06
2023-03-06T05:42:51.987Z,26.04
2023-03-06T05:43:51.943Z,26.06
2023-03-06T05:44:51.958Z,26.03
2023-03-06T05:45:51.993Z,26.01
2023-03-06T05:46:51.920Z,26.03
2023-03-06T05:47:51.923Z,26.08
2023-03-06T05:48:51.902Z,26.08
2023-03-06T05:49:51.900Z,26.09
2023-03-06T05:50:51.883Z,26.08
2023-03-06T05:51:51.872Z,26.06
2023-03-06T05:52:51.861Z,26.03
2023-03-06T05:53:51.855Z,26.05
2023-03-06T05:54:51.844Z,26.05
2023-03-06T05:55:51.848Z,26.01
2023-03-06T05:56:51.827Z,26.07
2023-03-06T05:57:51.815Z,26.06
2023-03-06T05:58:51.856Z,26.06
2023-03-06T05:59:51.829Z,26.08
2023-03-06T06:00:51.790Z,26.06
2023-03-06T06:01:51.777Z,26.09
2023-03-06T06:02:51.833Z,26.03
2023-03-06T06:03:51.886Z,26.03
2023-03-06T06:04:51.751Z,26.08
2023-03-06T06:05:51.800Z,26.06
2023-03-06T06:06:51.732Z,26.01
2023-03-06T06:07:51.723Z,26.08
2023-03-06T06:08:51.713Z,26.05
2023-03-06T06:09:51.838Z,25.91
2023-03-06T06:10:53.464Z,25.78
2023-03-06T06:11:51.691Z,25.64
2023-03-06T06:12:51.690Z,25.51
2023-03-06T06:13:51.674Z,25.37
2023-03-06T06:14:51.684Z,25.27
2023-03-06T06:15:51.722Z,25.16
2023-03-06T06:16:51.651Z,25.10
2023-03-06T06:17:51.635Z,25.09
2023-03-06T06:18:51.625Z,25.09
2023-03-06T06:19:51.616Z,25.09
2023-03-06T06:20:51.606Z,25.19
2023-03-06T06:21:51.596Z,25.51
2023-03-06T06:22:51.834Z,25.65
2023-03-06T06:23:51.585Z,25.83
2023-03-06T06:24:51.565Z,25.90
2023-03-06T06:25:51.560Z,26.04
2023-03-06T06:26:51.550Z,26.11
2023-03-06T06:27:51.547Z,26.14
2023-03-06T06:28:51.847Z,26.21
2023-03-06T06:29:51.522Z,26.24
2023-03-06T06:30:51.566Z,26.23
2023-03-06T06:31:51.532Z,26.39
2023-03-06T06:32:51.517Z,26.38
2023-03-06T06:33:51.488Z,26.45
2023-03-06T06:34:51.481Z,26.47
2023-03-06T06:35:51.523Z,26.58
2023-03-06T06:36:53.398Z,26.60
2023-03-06T06:37:51.449Z,26.65
2023-03-06T06:38:51.448Z,26.81
2023-03-06T06:39:51.435Z,26.82
2023-03-06T06:41:25.556Z,26.91
2023-03-06T06:42:05.531Z,26.95
2023-03-06T06:42:51.411Z,27.02
2023-03-06T06:43:51.849Z,27.05
2023-03-06T06:44:51.423Z,27.06
2023-03-06T06:45:52.186Z,27.20
2023-03-06T06:47:51.649Z,27.28
2023-03-06T06:48:51.569Z,27.38
2023-03-06T06:50:51.565Z,27.56
2023-03-06T06:51:51.849Z,27.92
2023-03-06T06:52:51.591Z,27.76
2023-03-06T06:53:51.550Z,28.09
2023-03-06T06:54:51.849Z,28.57
2023-03-06T06:56:51.497Z,28.41
2023-03-06T06:57:51.686Z,28.26
2023-03-06T06:58:51.488Z,27.97
2023-03-06T06:59:53.899Z,27.93
2023-03-06T07:02:51.489Z,27.90
2023-03-06T07:03:51.444Z,27.87
2023-03-06T07:05:04.772Z,27.77
2023-03-06T07:05:51.525Z,27.69
2023-03-06T07:06:51.888Z,27.58
2023-03-06T07:07:52.401Z,27.58
2023-03-06T07:08:51.389Z,27.56
2023-03-06T07:09:51.380Z,27.43
2023-03-06T07:10:51.437Z,27.40
2023-03-06T07:12:07.451Z,27.33
2023-03-06T07:12:51.357Z,27.43
2023-03-06T07:14:51.351Z,27.39
2023-03-06T07:15:51.391Z,27.22
2023-03-06T07:16:51.358Z,27.16
2023-03-06T07:17:51.356Z,27.18
2023-03-06T07:18:51.350Z,27.10
2023-03-06T07:19:51.302Z,27.04
2023-03-06T07:20:51.364Z,27.02
2023-03-06T07:21:51.281Z,27.00
2023-03-06T07:22:52.028Z,26.94
2023-03-06T07:23:51.254Z,26.91
2023-03-06T07:24:51.249Z,26.88
2023-03-06T07:25:51.362Z,26.78
2023-03-06T07:26:51.250Z,26.80
2023-03-06T07:27:53.867Z,26.77
2023-03-06T07:28:52.934Z,26.74
2023-03-06T07:29:51.201Z,26.73
2023-03-06T07:30:51.323Z,26.72
2023-03-06T07:31:51.185Z,26.70
2023-03-06T07:32:51.185Z,26.56
2023-03-06T07:33:51.169Z,26.50
2023-03-06T07:34:51.181Z,26.36
2023-03-06T07:35:51.173Z,26.44
2023-03-06T07:36:51.146Z,26.45
2023-03-06T07:37:51.372Z,26.44
2023-03-06T07:38:51.121Z,26.38
2023-03-06T07:39:51.362Z,26.35
2023-03-06T07:40:51.514Z,26.31
2023-03-06T07:41:51.094Z,26.33
2023-03-06T07:42:51.086Z,26.39
2023-03-06T07:43:51.093Z,26.41
2023-03-06T07:44:51.373Z,26.44
2023-03-06T07:45:51.065Z,26.51
2023-03-06T07:46:51.085Z,26.65
2023-03-06T07:47:51.398Z,26.69
2023-03-06T07:48:51.588Z,26.85
2023-03-06T07:49:51.374Z,26.97
2023-03-06T07:50:51.892Z,27.04
2023-03-06T07:51:51.025Z,27.10
2023-03-06T07:52:50.997Z,27.16
2023-03-06T07:53:51.257Z,27.28
2023-03-06T07:54:51.373Z,27.29
2023-03-06T07:55:50.991Z,27.29
2023-03-06T07:56:50.962Z,27.33
2023-03-06T07:57:51.373Z,27.41
2023-03-06T07:58:50.941Z,27.47
2023-03-06T07:59:50.940Z,27.41
2023-03-06T08:00:51.399Z,27.51
2023-03-06T08:01:50.920Z,27.45
2023-03-06T08:02:51.404Z,27.44
2023-03-06T08:03:50.961Z,27.48
2023-03-06T08:04:50.895Z,27.65
2023-03-06T08:06:50.898Z,27.69
2023-03-06T08:07:50.878Z,27.72
2023-03-06T08:08:50.866Z,27.72
2023-03-06T08:09:50.874Z,27.74
2023-03-06T08:10:50.875Z,27.71
2023-03-06T08:11:50.864Z,27.66
2023-03-06T08:12:50.916Z,27.65
2023-03-06T08:13:51.325Z,27.62
2023-03-06T08:14:50.833Z,27.73
2023-03-06T08:15:50.828Z,27.80
2023-03-06T08:16:51.088Z,27.82
2023-03-06T08:17:50.908Z,27.90
2023-03-06T08:18:50.782Z,27.89
2023-03-06T08:19:51.642Z,27.90
2023-03-06T08:20:51.689Z,27.93
2023-03-06T08:21:50.773Z,27.93
2023-03-06T08:22:50.908Z,27.97
2023-03-06T08:23:50.787Z,27.96
2023-03-06T08:24:50.772Z,27.90
2023-03-06T08:25:50.768Z,27.88
2023-03-06T08:26:50.759Z,27.80
2023-03-06T08:27:51.012Z,27.80
2023-03-06T08:28:50.711Z,27.81
2023-03-06T08:29:50.691Z,27.79
2023-03-06T08:30:50.682Z,27.86
2023-03-06T08:31:50.796Z,27.78
2023-03-06T08:32:50.916Z,27.89
2023-03-06T08:33:50.648Z,27.76
2023-03-06T08:34:50.655Z,27.96
2023-03-06T08:35:50.685Z,27.92
2023-03-06T08:36:50.632Z,27.94
2023-03-06T08:37:50.885Z,27.56
2023-03-06T08:38:50.607Z,27.21
2023-03-06T08:39:50.576Z,26.63
2023-03-06T08:40:50.887Z,25.99
2023-03-06T08:41:50.554Z,25.78
2023-03-06T08:42:50.565Z,25.54
2023-03-06T08:43:50.889Z,25.49
2023-03-06T08:44:50.542Z,25.29
2023-03-06T08:45:50.557Z,24.10
2023-03-06T08:46:50.889Z,23.51
2023-03-06T08:47:50.496Z,23.57
2023-03-06T08:48:50.501Z,23.64
2023-03-06T08:49:50.889Z,22.76
2023-03-06T08:50:50.481Z,22.29
2023-03-06T08:51:50.470Z,22.58
2023-03-06T08:52:50.452Z,22.33
2023-03-06T08:53:50.894Z,22.19
2023-03-06T08:55:50.425Z,22.05
2023-03-06T08:56:51.441Z,22.20
2023-03-06T08:57:50.415Z,22.18
2023-03-06T08:58:50.938Z,22.65
2023-03-06T08:59:50.416Z,23.10
2023-03-06T09:00:50.495Z,23.16
2023-03-06T09:01:51.383Z,23.01
2023-03-06T09:02:50.364Z,23.32
2023-03-06T09:03:50.398Z,23.72
2023-03-06T09:04:50.345Z,24.17
2023-03-06T09:05:50.329Z,24.90
2023-03-06T09:06:50.892Z,25.19
2023-03-06T09:07:50.312Z,25.18
2023-03-06T09:21:50.185Z,28.07
2023-03-06T09:35:50.124Z,29.41
2023-03-06T09:41:50.415Z,29.27
2023-03-06T09:45:50.339Z,30.08
2023-03-06T09:51:49.915Z,30.08
2023-03-06T09:58:49.900Z,30.21
2023-03-06T10:01:49.971Z,30.04
2023-03-06T10:05:49.810Z,30.37
2023-03-06T10:13:49.763Z,30.78
2023-03-06T10:14:49.746Z,30.83
2023-03-06T10:25:49.962Z,30.73
2023-03-06T10:35:49.701Z,30.43
2023-03-06T10:36:49.964Z,30.54
2023-03-06T10:47:49.462Z,31.21
2023-03-06T10:51:49.406Z,31.13
2023-03-06T10:52:49.433Z,31.56
2023-03-06T10:55:49.360Z,31.32
2023-03-06T10:56:49.366Z,31.52
2023-03-06T10:57:50.430Z,31.55
2023-03-06T10:59:49.441Z,31.64
2023-03-06T11:01:49.349Z,31.52
2023-03-06T11:02:49.495Z,31.43
2023-03-06T11:05:49.273Z,31.41
2023-03-06T11:06:49.469Z,31.47
2023-03-06T11:08:49.240Z,31.46
2023-03-06T11:09:49.242Z,31.34
2023-03-06T11:10:49.439Z,31.36
2023-03-06T11:12:56.633Z,31.40
2023-03-06T11:14:49.221Z,31.22
2023-03-06T11:15:49.468Z,31.46
2023-03-06T11:17:49.165Z,31.37
2023-03-06T11:18:49.476Z,31.41
2023-03-06T11:20:52.634Z,31.34
2023-03-06T11:21:49.135Z,31.24
2023-03-06T11:22:49.361Z,31.40
2023-03-06T11:25:49.098Z,32.39
2023-03-06T11:28:49.512Z,31.40
2023-03-06T11:32:49.972Z,31.92
2023-03-06T11:35:49.032Z,31.50
2023-03-06T11:36:48.997Z,31.12
2023-03-06T11:37:49.452Z,31.28
2023-03-06T11:38:48.995Z,31.39
2023-03-06T11:39:49.655Z,31.18
2023-03-06T11:40:48.998Z,31.20
2023-03-06T11:41:48.961Z,31.02
2023-03-06T11:42:49.452Z,31.09
2023-03-06T11:43:48.950Z,31.06
2023-03-06T11:44:48.954Z,31.20
2023-03-06T11:45:48.933Z,31.13
2023-03-06T11:46:49.011Z,31.07
2023-03-06T11:48:49.470Z,30.92
2023-03-06T11:49:49.306Z,30.80
2023-03-06T11:50:48.923Z,31.26
2023-03-06T11:51:48.962Z,30.99
2023-03-06T11:52:48.949Z,31.06
2023-03-06T11:54:48.834Z,31.67
2023-03-06T11:55:48.902Z,31.60
2023-03-06T11:56:48.962Z,31.16
2023-03-06T11:57:48.813Z,31.15
2023-03-06T11:58:48.958Z,31.14
2023-03-06T11:59:48.799Z,31.37
2023-03-06T12:00:48.796Z,31.17
2023-03-06T12:01:49.821Z,31.06
2023-03-06T12:02:48.768Z,31.20
2023-03-06T12:03:48.960Z,31.11
2023-03-06T12:04:48.769Z,31.05
2023-03-06T12:05:48.760Z,31.15
2023-03-06T12:06:48.767Z,31.08
2023-03-06T12:07:48.722Z,31.17
2023-03-06T12:08:48.960Z,30.96
2023-03-06T12:09:48.962Z,31.18
2023-03-06T12:10:51.736Z,31.04
2023-03-06T12:11:49.520Z,31.07
2023-03-06T12:12:48.709Z,31.28
2023-03-06T12:13:48.961Z,31.31
2023-03-06T12:14:48.874Z,31.14
2023-03-06T12:15:48.654Z,30.84
2023-03-06T12:16:48.704Z,30.74
2023-03-06T12:17:48.641Z,30.67
2023-03-06T12:18:48.967Z,30.54
2023-03-06T12:19:48.968Z,30.31
2023-03-06T12:20:48.966Z,30.24
2023-03-06T12:21:48.613Z,30.09
2023-03-06T12:22:57.875Z,30.01
2023-03-06T12:23:50.036Z,29.93
2023-03-06T12:25:48.596Z,29.75
2023-03-06T12:26:48.564Z,29.64
2023-03-06T12:27:48.561Z,29.77
2023-03-06T12:28:48.544Z,29.83
2023-03-06T12:29:48.980Z,29.91
2023-03-06T12:30:48.537Z,29.92
2023-03-06T12:31:48.579Z,29.99
2023-03-06T12:32:48.575Z,29.95
2023-03-06T12:33:48.503Z,30.05
2023-03-06T12:34:48.978Z,29.91
2023-03-06T12:35:48.567Z,29.85
2023-03-06T12:36:48.478Z,29.82
2023-03-06T12:37:48.978Z,29.85
2023-03-06T12:38:48.533Z,30.01
2023-03-06T12:39:48.463Z,30.02
2023-03-06T12:40:48.941Z,29.87
2023-03-06T12:41:48.435Z,29.88
2023-03-06T12:42:48.421Z,29.70
2023-03-06T12:43:48.411Z,29.78
2023-03-06T12:44:48.600Z,29.87
2023-03-06T12:45:48.460Z,29.39
2023-03-06T12:46:48.389Z,28.79
2023-03-06T12:47:48.393Z,28.51
2023-03-06T12:48:48.407Z,28.31
2023-03-06T12:49:48.603Z,28.33
2023-03-06T12:50:48.476Z,28.47
2023-03-06T12:51:48.353Z,28.54
2023-03-06T12:52:48.371Z,28.76
2023-03-06T12:53:48.333Z,28.88
2023-03-06T12:54:48.354Z,28.63
2023-03-06T12:55:48.486Z,28.87
2023-03-06T12:56:48.305Z,28.94
2023-03-06T12:57:48.299Z,28.85
2023-03-06T12:58:48.489Z,28.79
2023-03-06T12:59:48.286Z,28.86
2023-03-06T13:00:52.590Z,28.98
2023-03-06T13:01:48.309Z,29.11
2023-03-06T13:02:48.530Z,29.10
2023-03-06T13:03:48.246Z,28.96
2023-03-06T13:04:48.239Z,28.94
2023-03-06T13:05:48.247Z,28.98
2023-03-06T13:06:50.944Z,29.10
2023-03-06T13:07:48.499Z,29.10
2023-03-06T13:08:48.448Z,29.10
2023-03-06T13:10:48.540Z,29.09
2023-03-06T13:11:48.179Z,29.16
2023-03-06T13:12:48.486Z,29.33
2023-03-06T13:13:48.163Z,29.06
2023-03-06T13:14:54.058Z,29.03
2023-03-06T13:15:48.149Z,29.24
2023-03-06T13:16:48.189Z,29.27
2023-03-06T13:17:48.128Z,29.36
2023-03-06T13:18:48.496Z,29.35
2023-03-06T13:19:48.114Z,29.33
2023-03-06T13:20:48.491Z,29.46
2023-03-06T13:21:48.553Z,29.55
2023-03-06T13:22:48.092Z,29.53
2023-03-06T13:23:48.086Z,29.70
2023-03-06T13:24:49.476Z,29.77
2023-03-06T13:25:48.109Z,29.75
2023-03-06T13:26:48.170Z,29.80
2023-03-06T13:27:48.040Z,29.68
2023-03-06T13:28:48.039Z,29.59
2023-03-06T13:29:48.493Z,29.85
2023-03-06T13:30:48.040Z,30.18
2023-03-06T13:31:48.066Z,30.22
2023-03-06T13:32:48.493Z,30.24
2023-03-06T13:33:48.006Z,30.24
2023-03-06T13:34:47.985Z,29.94
2023-03-06T13:35:48.047Z,30.00
2023-03-06T13:36:47.973Z,30.09
2023-03-06T13:37:48.000Z,30.16
2023-03-06T13:38:47.999Z,30.09
2023-03-06T13:39:47.938Z,30.09
2023-03-06T13:40:47.930Z,30.10
2023-03-06T13:41:47.929Z,29.90
2023-03-06T13:42:47.935Z,29.96
2023-03-06T13:43:47.920Z,30.13
2023-03-06T13:44:47.927Z,30.27
2023-03-06T13:45:47.942Z,30.07
2023-03-06T13:46:47.880Z,30.21
2023-03-06T13:48:25.042Z,29.98
2023-03-06T13:48:47.916Z,30.05
2023-03-06T13:49:47.854Z,30.37
2023-03-06T13:50:47.858Z,29.81
2023-03-06T13:51:47.847Z,29.43
2023-03-06T13:52:47.829Z,29.33
2023-03-06T13:53:47.875Z,29.53
2023-03-06T13:54:47.813Z,29.70
2023-03-06T13:55:47.998Z,29.78
2023-03-06T13:56:47.808Z,29.29
2023-03-06T13:57:47.793Z,28.57
2023-03-06T13:58:48.034Z,26.84
2023-03-06T13:59:50.511Z,27.56
2023-03-06T14:00:47.758Z,28.06
2023-03-06T14:01:47.803Z,28.39
2023-03-06T14:02:47.750Z,28.47
2023-03-06T14:03:48.007Z,28.62
2023-03-06T14:04:47.732Z,28.79
2023-03-06T14:06:47.709Z,28.96
2023-03-06T14:07:47.698Z,29.22
2023-03-06T14:08:48.446Z,29.48
2023-03-06T14:09:48.013Z,29.66
2023-03-06T14:10:48.315Z,29.76
2023-03-06T14:11:48.106Z,29.75
2023-03-06T14:12:47.954Z,29.71
2023-03-06T14:14:48.417Z,29.77
2023-03-06T14:15:48.147Z,29.82
2023-03-06T14:16:50.417Z,30.01
2023-03-06T14:17:47.622Z,29.95
2023-03-06T14:18:47.602Z,30.07
2023-03-06T14:19:48.000Z,30.00
2023-03-06T14:20:47.590Z,30.13
2023-03-06T14:21:47.605Z,30.14
2023-03-06T14:23:47.565Z,30.27
2023-03-06T14:24:47.558Z,30.27
2023-03-06T14:26:47.536Z,30.28
2023-03-06T14:27:47.533Z,30.26
2023-03-06T14:29:48.009Z,30.38
2023-03-06T14:30:47.526Z,30.47
2023-03-06T14:31:47.486Z,30.44
2023-03-06T14:32:47.481Z,30.35
2023-03-06T14:33:47.465Z,30.27
2023-03-06T14:34:47.510Z,29.09
2023-03-06T14:35:47.489Z,26.31
2023-03-06T14:36:47.515Z,24.92
2023-03-06T14:37:47.440Z,25.35
2023-03-06T14:38:47.473Z,24.69
2023-03-06T14:39:47.513Z,25.85
2023-03-06T14:40:47.413Z,24.71
2023-03-06T14:41:47.420Z,23.84
2023-03-06T14:42:47.401Z,22.84
2023-03-06T14:43:47.388Z,22.90
2023-03-06T14:44:47.391Z,22.90
2023-03-06T14:46:47.465Z,22.62
2023-03-06T14:47:48.522Z,23.38
2023-03-06T14:48:47.339Z,23.22
2023-03-06T14:49:46.354Z,23.82
2023-03-06T14:50:47.330Z,23.81
2023-03-06T14:52:47.332Z,24.81
2023-03-06T14:53:47.304Z,24.01
2023-03-06T14:54:47.287Z,24.64
2023-03-06T14:55:47.296Z,24.46
2023-03-06T14:56:47.280Z,24.68
2023-03-06T14:57:47.264Z,25.35
2023-03-06T14:58:47.257Z,25.34
2023-03-06T14:59:47.313Z,24.89
2023-03-06T15:00:47.266Z,24.30
2023-03-06T15:01:47.254Z,24.72
2023-03-06T15:02:47.266Z,24.62
2023-03-06T15:03:47.213Z,24.35
2023-03-06T15:04:47.200Z,24.27
2023-03-06T15:05:47.199Z,24.01
2023-03-06T15:06:47.222Z,24.26
2023-03-06T15:07:47.172Z,24.13
2023-03-06T15:08:47.164Z,24.61
2023-03-06T15:09:47.156Z,23.90
2023-03-06T15:10:47.179Z,25.03
2023-03-06T15:11:47.561Z,24.06
2023-03-06T15:12:47.148Z,24.30
2023-03-06T15:13:47.131Z,24.21
2023-03-06T15:14:47.137Z,24.44
2023-03-06T15:15:47.114Z,24.07
2023-03-06T15:16:47.092Z,24.40
2023-03-06T15:17:47.098Z,24.64
2023-03-06T15:24:47.031Z,24.06
2023-03-06T15:27:47.030Z,24.08
2023-03-06T15:29:47.029Z,23.67
2023-03-06T15:32:46.945Z,23.39
2023-03-06T16:45:46.329Z,30.69
2023-03-06T16:48:46.281Z,30.66
2023-03-06T17:23:45.958Z,30.24
2023-03-06T18:42:45.229Z,29.71
2023-03-06T18:59:45.072Z,29.60
2023-03-06T19:41:44.707Z,29.39
2023-03-06T19:42:44.690Z,29.39
2023-03-06T19:43:45.226Z,29.38
2023-03-06T19:44:44.681Z,29.35
2023-03-06T19:45:44.749Z,29.36
2023-03-06T19:46:44.664Z,29.38
2023-03-06T19:47:44.669Z,29.39
2023-03-06T19:48:44.648Z,29.32
2023-03-06T19:49:44.632Z,29.35
2023-03-06T19:50:44.644Z,29.38
2023-03-06T19:51:44.616Z,29.38
2023-03-06T19:52:44.604Z,29.34
2023-03-06T19:53:44.608Z,29.35
2023-03-06T19:54:44.586Z,29.34
2023-03-06T19:55:44.577Z,29.35
2023-03-06T19:56:44.570Z,29.31
2023-03-06T19:57:44.561Z,29.38
2023-03-06T19:58:44.576Z,29.31
2023-03-06T19:59:44.549Z,29.31
2023-03-06T20:00:44.539Z,29.35
2023-03-06T20:01:44.626Z,29.32
2023-03-06T20:02:44.545Z,29.31
2023-03-06T20:03:44.548Z,29.31
2023-03-06T20:04:44.549Z,29.29
2023-03-06T20:05:44.527Z,29.31
2023-03-06T20:06:44.534Z,29.33
2023-03-06T20:07:44.473Z,29.34
2023-03-06T20:08:44.468Z,29.36